Nearby METAR Reports

 

KSJC - San Jose, California, USA
Distance from station: NE 9mi, 14km
Updated: 10/23/2019 7:53am
Clear
Clear
 Wind from calm
Wind: Calm
Temperature: 57°F , 14°C
Dew Point: 48°F , 9°C
Humidity: 72%
Barometer: 30.02 inHg , 1016.6 hPa
Clouds: Clear
Visibility: 10 miles , 16 km
2019/10/23 11:53 KSJC 231153Z AUTO 00000KT 10SM CLR 14/09 A3002 RMK AO2 SLP166 T01390089 10189 20139 58001
KNUQ - Moffett Nas/Mtn, California, USA
Distance from station: N 9mi, 14km
Updated: 10/23/2019 7:56am

 
Barometer: 30.03 inHg , 1016.9 hPa
2019/10/23 11:56 KNUQ 231156Z A3003 RMK AO2 SLP173 50000 PWINO $
KPAO - Palo Alto, California, USA
Distance from station: NNW 14mi, 23km
Updated: 10/22/2019 11:47pm
NOT Current
Clear
Clear
 Wind from WNW
Wind: WNW 3 mph , 6 km/h
Temperature: 63°F , 17°C
Dew Point: 52°F , 11°C
Humidity: 68%
Barometer: 30.06 inHg , 1017.9 hPa
Clouds: Clear
Visibility: 10 miles , 16 km
2019/10/23 03:47 KPAO 230347Z 30003KT 10SM SKC 17/11 A3006 RMK LAST
 
KRHV - San Jose/Reid, California, USA
Distance from station: ENE 12mi, 19km
Updated: 10/23/2019 12:47am
NOT Current
Clear
Clear
 Wind from calm
Wind: Calm
Temperature: 64°F , 18°C
Dew Point: 45°F , 7°C
Humidity: 49%
Barometer: 30.07 inHg , 1018.3 hPa
Clouds: Clear
Visibility: 10 miles , 16 km
2019/10/23 04:47 KRHV 230447Z 00000KT 10SM SKC 18/07 A3007 RMK LAST
KOAK - Oakland, California, USA
Distance from station: NNW 31mi, 50km
Updated: 10/23/2019 7:53am
Few Clouds
Few Clouds
 Wind from calm
Wind: Calm
Temperature: 57°F , 14°C
Dew Point: 52°F , 11°C
Humidity: 82%
Barometer: 30.03 inHg , 1016.9 hPa
Clouds: Few Clouds
Visibility: 10 miles , 16 km
Cloud details: Few Clouds 20000 ft
2019/10/23 11:53 KOAK 231153Z 00000KT 10SM FEW200 14/11 A3003 RMK AO2 SLP166 T01390106 10183 20128 58006
KSQL - San Carlos Airpo, California, USA
Distance from station: NW 21mi, 34km
Updated: 10/22/2019 11:47pm
NOT Current
Clear
Clear
 Wind from varies
Wind: varies 3 mph , 6 km/h
Temperature: 70°F , 21°C
Dew Point: 48°F , 9°C
Humidity: 46%
Barometer: 30.06 inHg , 1017.9 hPa
Clouds: Clear
Visibility: 10 miles , 16 km
2019/10/23 03:47 KSQL 230347Z VRB03KT 10SM SKC 21/09 A3006
 
KSFO - San Francisco, California, USA
Distance from station: NW 30mi, 49km
Updated: 10/23/2019 7:56am
Few Clouds
Few Clouds
 Wind from calm
Wind: Calm
Temperature: 61°F , 16°C
Dew Point: 48°F , 9°C
Humidity: 63%
Barometer: 30.02 inHg , 1016.6 hPa
Clouds: Few Clouds
Visibility: 10 miles , 16 km
Cloud details: Few Clouds 20000 ft
2019/10/23 11:56 KSFO 231156Z 00000KT 10SM FEW200 16/09 A3002 RMK AO2 SLP165 T01560089 10183 20144 58004
KE16 - San Martin, California, USA
Distance from station: ESE 27mi, 43km
Updated: 10/23/2019 8:10am
Clear
Clear
 Wind from calm
Wind: Calm
Temperature: 52°F , 11°C
Dew Point: 41°F , 5°C
Humidity: 67%
Barometer: 30.04 inHg , 1017.3 hPa
Clouds: Clear
Visibility: 10 miles , 16 km
2019/10/23 12:10 KE16 231210Z AUTO 00000KT 10SM CLR 11/05 A3004 RMK AO2
KWVI - Watsonville, California, USA
Distance from station: SSE 27mi, 44km
Updated: 10/23/2019 7:53am
Clear
Clear
 Wind from calm
Wind: Calm
Temperature: 57°F , 14°C
Dew Point: 43°F , 6°C
Humidity: 59%
Barometer: 30.01 inHg , 1016.3 hPa
Clouds: Clear
Visibility: 10 miles , 16 km
2019/10/23 11:53 KWVI 231153Z AUTO 00000KT 10SM CLR 14/06 A3001 RMK AO2 SLP161 T01390061 10156 20106 57007
 
KHAF - Half Moon Bay, California, USA
Distance from station: WNW 31mi, 50km
Updated: 10/23/2019 8:35am
Mist, Overcast
Mist, Overcast
 Wind from calm
Wind: Calm
Temperature: 54°F , 12°C
Dew Point: 50°F , 10°C
Humidity: 88%
Barometer: 30.02 inHg , 1016.6 hPa
Summary: Mist
Clouds: Overcast
Visibility: 4 miles , 6 km
Cloud details: Overcast 200 ft
2019/10/23 12:35 KHAF 231235Z AUTO 00000KT 4SM BR OVC002 12/10 A3002 RMK AO2
KHWD - Hayward, California, USA
Distance from station: N 28mi, 44km
Updated: 10/23/2019 7:54am
Clear
Clear
 Wind from calm
Wind: Calm
Temperature: 57°F , 14°C
Dew Point: 45°F , 7°C
Humidity: 63%
Barometer: 30.02 inHg , 1016.6 hPa
Clouds: Clear
Visibility: 10 miles , 16 km
2019/10/23 11:54 KHWD 231154Z AUTO 00000KT 10SM CLR 14/07 A3002 RMK AO2 SLP173 T01440067 10183 20144 58005
KLVK - Livermore, California, USA
Distance from station: NNE 31mi, 51km
Updated: 10/23/2019 7:53am
Clear
Clear
 Wind from calm
Wind: Calm
Temperature: 55°F , 13°C
Dew Point: 43°F , 6°C
Humidity: 63%
Barometer: 30.03 inHg , 1016.9 hPa
Clouds: Clear
Visibility: 10 miles , 16 km
2019/10/23 11:53 KLVK 231153Z AUTO 00000KT 10SM CLR 13/06 A3003 RMK AO2 SLP164 T01330061 10161 20122 58005